createdAt,value
2022-11-12T00:04:55.981Z,102159.56
2022-11-12T00:09:58.551Z,102155.53
2022-11-12T00:15:02.668Z,102156.19
2022-11-12T00:20:06.645Z,102161.84
2022-11-12T00:25:09.898Z,102158.16
2022-11-12T00:30:14.692Z,102155.44
2022-11-12T00:35:17.696Z,102150.34
2022-11-12T00:40:20.255Z,102150.31
2022-11-12T00:45:24.778Z,102159.31
2022-11-12T00:50:27.263Z,102153.69
2022-11-12T00:55:29.854Z,102153.28
2022-11-12T01:00:33.738Z,102158.16
2022-11-12T01:05:36.312Z,102156.25
2022-11-12T01:10:38.986Z,102145.59
2022-11-12T01:15:43.712Z,102146.97
2022-11-12T01:20:46.258Z,102147.56
2022-11-12T01:25:48.829Z,102150.13
2022-11-12T01:30:52.791Z,102134.69
2022-11-12T01:35:59.553Z,102140.88
2022-11-12T01:41:02.176Z,102142.03
2022-11-12T01:46:09.378Z,102149.75
2022-11-12T01:51:14.003Z,102141.81
2022-11-12T01:56:18.267Z,102149.16
2022-11-12T02:01:22.293Z,102143.06
2022-11-12T02:06:25.932Z,102139.47
2022-11-12T02:11:28.532Z,102144.50
2022-11-12T02:16:35.452Z,102141.78
2022-11-12T02:21:39.683Z,102145.50
2022-11-12T02:26:45.833Z,102144.72
2022-11-12T02:31:48.760Z,102149.34
2022-11-12T02:36:52.632Z,102150.41
2022-11-12T02:41:55.190Z,102154.72
2022-11-12T02:46:57.815Z,102147.47
2022-11-12T02:52:01.761Z,102159.00
2022-11-12T02:57:04.549Z,102155.22
2022-11-12T03:02:07.155Z,102165.63
2022-11-12T03:07:11.115Z,102168.13
2022-11-12T03:12:13.741Z,102156.88
2022-11-12T03:17:16.281Z,102169.63
2022-11-12T03:22:20.193Z,102161.50
2022-11-12T03:27:22.750Z,102159.19
2022-11-12T03:32:26.016Z,102156.75
2022-11-12T03:37:30.081Z,102146.66
2022-11-12T03:42:32.663Z,102146.06
2022-11-12T03:47:35.277Z,102143.75
2022-11-12T03:52:40.028Z,102145.22
2022-11-12T03:57:43.037Z,102153.91
2022-11-12T04:02:45.867Z,102147.03
2022-11-12T04:08:14.661Z,102148.31
2022-11-12T04:13:29.396Z,102152.03
2022-11-12T04:18:49.406Z,102149.69
2022-11-12T04:23:53.348Z,102153.00
2022-11-12T04:29:13.670Z,102152.16
2022-11-12T04:34:31.732Z,102148.41
2022-11-12T04:39:36.223Z,102158.97
2022-11-12T04:45:01.208Z,102152.66
2022-11-12T04:50:05.593Z,102151.00
2022-11-12T04:55:10.889Z,102149.41
2022-11-12T05:00:14.560Z,102155.69
2022-11-12T05:05:17.701Z,102154.00
2022-11-12T05:10:21.635Z,102157.84
2022-11-12T05:15:24.754Z,102161.81
2022-11-12T05:20:27.461Z,102159.31
2022-11-12T05:25:31.344Z,102155.78
2022-11-12T05:30:33.931Z,102166.16
2022-11-12T05:35:36.518Z,102166.16
2022-11-12T05:40:45.502Z,102154.22
2022-11-12T05:45:48.093Z,102163.13
2022-11-12T05:51:12.050Z,102162.91
2022-11-12T05:56:15.176Z,102168.25
2022-11-12T06:01:17.783Z,102168.50
2022-11-12T06:06:20.494Z,102176.78
2022-11-12T06:11:24.454Z,102176.66
2022-11-12T06:16:27.221Z,102178.19
2022-11-12T06:21:29.914Z,102182.34
2022-11-12T06:26:33.926Z,102189.06
2022-11-12T06:31:36.695Z,102201.31
2022-11-12T06:36:39.403Z,102190.19
2022-11-12T06:41:43.321Z,102186.19
2022-11-12T06:46:45.951Z,102187.63
2022-11-12T06:51:51.560Z,102186.97
2022-11-12T06:56:55.575Z,102198.63
2022-11-12T07:01:58.306Z,102202.94
2022-11-12T07:07:01.042Z,102199.56
2022-11-12T07:12:05.551Z,102195.44
2022-11-12T07:17:08.183Z,102199.06
2022-11-12T07:22:10.821Z,102197.47
2022-11-12T07:27:15.052Z,102194.91
2022-11-12T07:32:17.653Z,102193.16
2022-11-12T07:37:20.385Z,102198.06
2022-11-12T07:42:24.359Z,102191.41
2022-11-12T07:47:27.278Z,102191.09
2022-11-12T07:52:29.903Z,102183.56
2022-11-12T07:57:35.033Z,102178.56
2022-11-12T08:02:37.675Z,102192.34
2022-11-12T08:07:40.438Z,102190.63
2022-11-12T08:12:44.495Z,102189.25
2022-11-12T08:17:47.112Z,102193.50
2022-11-12T08:22:49.875Z,102195.16
2022-11-12T08:27:58.327Z,102193.13
2022-11-12T08:33:03.274Z,102196.84
2022-11-12T08:38:07.828Z,102192.78
2022-11-12T08:43:12.972Z,102192.53
2022-11-12T08:48:17.364Z,102192.72
2022-11-12T08:53:20.189Z,102205.91
2022-11-12T08:58:25.023Z,102200.28
2022-11-12T09:03:27.903Z,102202.66
2022-11-12T09:08:30.865Z,102195.53
2022-11-12T09:13:35.719Z,102194.38
2022-11-12T09:18:38.768Z,102199.44
2022-11-12T09:23:41.702Z,102205.94
2022-11-12T09:28:45.671Z,102200.78
2022-11-12T09:33:48.253Z,102190.19
2022-11-12T09:38:50.789Z,102195.63
2022-11-12T09:44:01.039Z,102196.88
2022-11-12T09:49:11.240Z,102192.66
2022-11-12T09:54:21.883Z,102181.19
2022-11-12T09:59:30.646Z,102178.47
2022-11-12T10:04:55.407Z,102178.22
2022-11-12T10:10:02.544Z,102180.44
2022-11-12T10:15:46.415Z,102177.63
2022-11-12T10:20:56.021Z,102170.41
2022-11-12T10:26:02.348Z,102168.28
2022-11-12T10:31:13.438Z,102165.28
2022-11-12T10:36:26.253Z,102173.38
2022-11-12T10:41:31.449Z,102172.97
2022-11-12T10:46:37.451Z,102171.94
2022-11-12T10:51:40.450Z,102173.00
2022-11-12T10:56:43.078Z,102187.19
2022-11-12T11:01:54.717Z,102170.69
2022-11-12T11:07:06.706Z,102173.25
2022-11-12T11:12:24.620Z,102170.06
2022-11-12T11:17:28.631Z,102160.72
2022-11-12T11:22:41.414Z,102157.19
2022-11-12T11:27:54.757Z,102155.81
2022-11-12T11:33:43.119Z,102149.84
2022-11-12T11:38:56.287Z,102152.50
2022-11-12T11:44:13.804Z,102143.19
2022-11-12T11:49:39.324Z,102145.47
2022-11-12T11:55:01.321Z,102143.19
2022-11-12T12:00:13.911Z,102118.41
2022-11-12T12:05:29.672Z,102124.47
2022-11-12T12:16:26.653Z,102107.53
2022-11-12T12:21:34.328Z,102108.03
2022-11-12T12:26:42.452Z,102106.59
2022-11-12T12:31:50.504Z,102102.31
2022-11-12T12:37:03.135Z,102104.97
2022-11-12T12:42:15.620Z,102090.34
2022-11-12T12:47:20.833Z,102092.47
2022-11-12T12:52:24.890Z,102089.28
2022-11-12T12:57:33.492Z,102078.88
2022-11-12T13:02:39.762Z,102072.91
2022-11-12T13:07:46.725Z,102066.13
2022-11-12T13:13:07.621Z,102060.34
2022-11-12T13:18:16.901Z,102054.06
2022-11-12T13:24:08.547Z,102056.34
2022-11-12T13:29:52.717Z,102056.56
2022-11-12T13:35:16.065Z,102058.56
2022-11-12T13:40:26.518Z,102051.31
2022-11-12T13:45:29.204Z,102063.97
2022-11-12T13:50:37.808Z,102056.13
2022-11-12T13:55:50.725Z,102061.97
2022-11-12T14:00:54.748Z,102065.78
2022-11-12T14:06:08.696Z,102074.88
2022-11-12T14:11:32.186Z,102080.69
2022-11-12T14:16:44.971Z,102073.41
2022-11-12T14:22:01.143Z,102063.31
2022-11-12T14:27:05.200Z,102065.28
2022-11-12T14:32:10.506Z,102054.97
2022-11-12T14:37:38.211Z,102042.63
2022-11-12T14:42:46.338Z,102040.91
2022-11-12T14:47:53.931Z,102028.03
2022-11-12T14:53:01.466Z,102016.56
2022-11-12T14:58:06.514Z,102016.56
2022-11-12T15:03:14.309Z,102023.44
2022-11-12T15:08:30.531Z,102021.84
2022-11-12T15:13:42.547Z,102014.38
2022-11-12T15:18:46.451Z,102019.19
2022-11-12T15:23:50.337Z,102009.50
2022-11-12T15:29:02.122Z,102021.56
2022-11-12T15:34:26.958Z,102019.00
2022-11-12T15:39:30.062Z,102019.22
2022-11-12T15:44:37.655Z,102023.69
2022-11-12T15:49:48.552Z,102018.22
2022-11-12T15:54:51.642Z,102019.44
2022-11-12T16:00:07.727Z,102020.94
2022-11-12T16:05:14.171Z,102017.81
2022-11-12T16:10:18.668Z,102028.19
2022-11-12T16:15:25.527Z,102020.38
2022-11-12T16:20:31.755Z,102020.16
2022-11-12T16:25:36.877Z,102016.94
2022-11-12T16:30:40.971Z,102020.34
2022-11-12T16:35:43.653Z,102019.59
2022-11-12T16:40:47.002Z,102019.13
2022-11-12T16:45:51.807Z,102022.38
2022-11-12T16:50:55.237Z,102018.75
2022-11-12T16:55:58.350Z,102024.69
2022-11-12T17:01:03.093Z,102018.97
2022-11-12T17:06:06.699Z,102008.88
2022-11-12T17:11:10.238Z,102013.28
2022-11-12T17:16:14.491Z,102000.81
2022-11-12T17:21:18.968Z,102006.56
2022-11-12T17:26:22.861Z,101989.25
2022-11-12T17:31:27.172Z,101997.50
2022-11-12T17:36:30.007Z,101982.50
2022-11-12T17:41:32.602Z,101993.34
2022-11-12T17:46:37.403Z,101991.69
2022-11-12T17:51:39.926Z,101994.22
2022-11-12T17:56:42.589Z,101998.06
2022-11-12T18:01:46.468Z,101998.53
2022-11-12T18:06:49.093Z,102000.19
2022-11-12T18:11:54.159Z,101994.03
2022-11-12T18:17:01.209Z,101997.22
2022-11-12T18:22:03.777Z,101999.53
2022-11-12T18:27:06.329Z,101993.03
2022-11-12T18:32:10.208Z,102000.69
2022-11-12T18:37:12.859Z,102002.69
2022-11-12T18:42:18.019Z,101999.34
2022-11-12T18:47:22.023Z,102011.22
2022-11-12T18:52:24.583Z,102018.94
2022-11-12T18:57:27.142Z,102018.97
2022-11-12T19:02:31.307Z,102008.41
2022-11-12T19:07:33.862Z,102014.41
2022-11-12T19:12:36.937Z,101994.69
2022-11-12T19:17:40.896Z,102007.75
2022-11-12T19:22:43.478Z,102000.63
2022-11-12T19:27:46.258Z,102005.81
2022-11-12T19:32:50.225Z,102005.09
2022-11-12T19:37:52.773Z,102011.22
2022-11-12T19:42:55.331Z,102010.53
2022-11-12T19:47:59.356Z,101996.28
2022-11-12T19:53:01.890Z,101992.09
2022-11-12T19:58:04.437Z,102002.81
2022-11-12T20:03:08.459Z,101997.78
2022-11-12T20:08:11.037Z,101991.25
2022-11-12T20:13:13.680Z,101985.59
2022-11-12T20:18:17.871Z,101994.75
2022-11-12T20:23:20.459Z,101997.09
2022-11-12T20:28:23.028Z,102000.16
2022-11-12T20:33:27.434Z,101988.53
2022-11-12T20:38:30.582Z,101986.69
2022-11-12T20:43:33.807Z,101999.38
2022-11-12T20:48:42.840Z,101988.56
2022-11-12T20:53:47.120Z,101979.34
2022-11-12T20:58:50.752Z,101982.53
2022-11-12T21:03:54.767Z,101973.34
2022-11-12T21:09:00.153Z,101967.50
2022-11-12T21:14:03.806Z,101977.09
2022-11-12T21:19:08.141Z,101970.81
2022-11-12T21:24:12.838Z,101972.69
2022-11-12T21:29:18.749Z,101973.50
2022-11-12T21:34:23.006Z,101978.28
2022-11-12T21:39:25.560Z,101975.88
2022-11-12T21:44:28.164Z,101981.53
2022-11-12T21:49:32.086Z,101981.06
2022-11-12T21:54:35.399Z,101971.06
2022-11-12T21:59:38.011Z,101964.03
2022-11-12T22:04:42.315Z,101965.56
2022-11-12T22:09:44.870Z,101959.41
2022-11-12T22:14:47.406Z,101949.88
2022-11-12T22:19:51.426Z,101946.75
2022-11-12T22:24:54.495Z,101939.16
2022-11-12T22:29:57.056Z,101931.13
2022-11-12T22:35:01.042Z,101926.03
2022-11-12T22:40:04.692Z,101931.59
2022-11-12T22:45:10.867Z,101932.03
2022-11-12T22:50:15.329Z,101921.69
2022-11-12T22:55:18.142Z,101923.34
2022-11-12T23:00:30.615Z,101915.22
2022-11-12T23:05:34.524Z,101917.47
2022-11-12T23:10:40.462Z,101912.34
2022-11-12T23:15:47.719Z,101923.66
2022-11-12T23:20:51.671Z,101919.63
2022-11-12T23:25:54.469Z,101915.03
2022-11-12T23:30:57.048Z,101914.06
2022-11-12T23:36:06.842Z,101907.09
2022-11-12T23:41:11.668Z,101898.81
2022-11-12T23:46:14.348Z,101882.38
2022-11-12T23:51:20.264Z,101882.31
2022-11-12T23:56:22.822Z,101868.31
